sensor_id;sensor_type;location;lat;lon;timestamp;P1;durP1;ratioP1;P2;durP2;ratioP2
944;SDS011;459;48.676;9.034;2023-11-21T00:02:09;3.40;;;2.33;;
944;SDS011;459;48.676;9.034;2023-11-21T00:04:35;5.43;;;2.37;;
944;SDS011;459;48.676;9.034;2023-11-21T00:07:00;2.80;;;2.17;;
944;SDS011;459;48.676;9.034;2023-11-21T00:09:25;3.90;;;2.10;;
944;SDS011;459;48.676;9.034;2023-11-21T00:11:50;3.53;;;2.17;;
944;SDS011;459;48.676;9.034;2023-11-21T00:14:15;3.47;;;2.53;;
944;SDS011;459;48.676;9.034;2023-11-21T00:16:41;4.50;;;2.70;;
944;SDS011;459;48.676;9.034;2023-11-21T00:19:06;3.93;;;2.83;;
944;SDS011;459;48.676;9.034;2023-11-21T00:21:31;3.10;;;2.23;;
944;SDS011;459;48.676;9.034;2023-11-21T00:23:57;2.67;;;2.10;;
944;SDS011;459;48.676;9.034;2023-11-21T00:26:22;4.50;;;2.47;;
944;SDS011;459;48.676;9.034;2023-11-21T00:28:47;4.10;;;2.60;;
944;SDS011;459;48.676;9.034;2023-11-21T00:31:12;3.17;;;2.60;;
944;SDS011;459;48.676;9.034;2023-11-21T00:33:38;2.17;;;1.97;;
944;SDS011;459;48.676;9.034;2023-11-21T00:36:03;3.07;;;2.03;;
944;SDS011;459;48.676;9.034;2023-11-21T00:38:29;4.97;;;2.17;;
944;SDS011;459;48.676;9.034;2023-11-21T00:40:55;3.50;;;2.30;;
944;SDS011;459;48.676;9.034;2023-11-21T00:43:24;2.77;;;2.10;;
944;SDS011;459;48.676;9.034;2023-11-21T00:45:49;5.03;;;2.40;;
944;SDS011;459;48.676;9.034;2023-11-21T00:48:14;4.50;;;2.67;;
944;SDS011;459;48.676;9.034;2023-11-21T00:50:40;3.73;;;1.97;;
944;SDS011;459;48.676;9.034;2023-11-21T00:53:05;2.70;;;1.63;;
944;SDS011;459;48.676;9.034;2023-11-21T00:55:32;2.53;;;1.40;;
944;SDS011;459;48.676;9.034;2023-11-21T00:57:57;3.70;;;2.67;;
944;SDS011;459;48.676;9.034;2023-11-21T01:00:23;4.80;;;1.60;;
944;SDS011;459;48.676;9.034;2023-11-21T01:02:48;2.10;;;1.60;;
944;SDS011;459;48.676;9.034;2023-11-21T01:05:13;5.33;;;2.33;;
944;SDS011;459;48.676;9.034;2023-11-21T01:07:38;3.33;;;1.70;;
944;SDS011;459;48.676;9.034;2023-11-21T01:10:04;2.10;;;1.20;;
944;SDS011;459;48.676;9.034;2023-11-21T01:12:32;1.20;;;1.10;;
944;SDS011;459;48.676;9.034;2023-11-21T01:14:57;7.20;;;1.80;;
944;SDS011;459;48.676;9.034;2023-11-21T01:17:25;4.90;;;1.93;;
944;SDS011;459;48.676;9.034;2023-11-21T01:19:50;2.97;;;1.90;;
944;SDS011;459;48.676;9.034;2023-11-21T01:22:16;3.73;;;2.10;;
944;SDS011;459;48.676;9.034;2023-11-21T01:24:42;3.60;;;1.93;;
944;SDS011;459;48.676;9.034;2023-11-21T01:27:07;3.60;;;2.50;;
944;SDS011;459;48.676;9.034;2023-11-21T01:29:33;1.83;;;1.73;;
944;SDS011;459;48.676;9.034;2023-11-21T01:31:59;0.80;;;0.80;;
944;SDS011;459;48.676;9.034;2023-11-21T01:34:24;1.60;;;1.50;;
944;SDS011;459;48.676;9.034;2023-11-21T01:36:50;1.90;;;1.37;;
944;SDS011;459;48.676;9.034;2023-11-21T01:39:15;3.00;;;1.50;;
944;SDS011;459;48.676;9.034;2023-11-21T01:41:41;5.93;;;1.50;;
944;SDS011;459;48.676;9.034;2023-11-21T01:44:08;1.90;;;1.00;;
944;SDS011;459;48.676;9.034;2023-11-21T01:46:34;1.53;;;1.43;;
944;SDS011;459;48.676;9.034;2023-11-21T01:49:00;2.20;;;1.60;;
944;SDS011;459;48.676;9.034;2023-11-21T01:51:25;1.07;;;0.93;;
944;SDS011;459;48.676;9.034;2023-11-21T01:53:51;1.33;;;1.23;;
944;SDS011;459;48.676;9.034;2023-11-21T01:56:16;1.70;;;1.53;;
944;SDS011;459;48.676;9.034;2023-11-21T01:58:42;1.20;;;1.10;;
944;SDS011;459;48.676;9.034;2023-11-21T02:01:07;1.57;;;1.30;;
944;SDS011;459;48.676;9.034;2023-11-21T02:03:33;2.70;;;2.57;;
944;SDS011;459;48.676;9.034;2023-11-21T02:05:59;0.83;;;0.83;;
944;SDS011;459;48.676;9.034;2023-11-21T02:08:24;1.60;;;0.90;;
944;SDS011;459;48.676;9.034;2023-11-21T02:10:49;2.17;;;1.20;;
944;SDS011;459;48.676;9.034;2023-11-21T02:13:14;1.27;;;0.93;;
944;SDS011;459;48.676;9.034;2023-11-21T02:15:40;2.00;;;1.23;;
944;SDS011;459;48.676;9.034;2023-11-21T02:18:06;5.10;;;1.47;;
944;SDS011;459;48.676;9.034;2023-11-21T02:20:31;2.20;;;1.70;;
944;SDS011;459;48.676;9.034;2023-11-21T02:22:59;2.77;;;1.50;;
944;SDS011;459;48.676;9.034;2023-11-21T02:25:25;1.33;;;1.17;;
944;SDS011;459;48.676;9.034;2023-11-21T02:27:51;1.70;;;1.23;;
944;SDS011;459;48.676;9.034;2023-11-21T02:30:16;1.87;;;1.23;;
944;SDS011;459;48.676;9.034;2023-11-21T02:32:41;3.07;;;1.23;;
944;SDS011;459;48.676;9.034;2023-11-21T02:35:08;2.10;;;1.30;;
944;SDS011;459;48.676;9.034;2023-11-21T02:37:33;5.13;;;3.33;;
944;SDS011;459;48.676;9.034;2023-11-21T02:39:58;1.90;;;1.27;;
944;SDS011;459;48.676;9.034;2023-11-21T02:42:24;0.97;;;0.90;;
944;SDS011;459;48.676;9.034;2023-11-21T02:44:49;2.50;;;0.80;;
944;SDS011;459;48.676;9.034;2023-11-21T02:47:15;2.20;;;1.00;;
944;SDS011;459;48.676;9.034;2023-11-21T02:49:40;4.27;;;1.10;;
944;SDS011;459;48.676;9.034;2023-11-21T02:52:05;1.33;;;0.70;;
944;SDS011;459;48.676;9.034;2023-11-21T02:54:30;0.80;;;0.80;;
944;SDS011;459;48.676;9.034;2023-11-21T02:56:56;0.83;;;0.83;;
944;SDS011;459;48.676;9.034;2023-11-21T02:59:21;1.80;;;0.97;;
944;SDS011;459;48.676;9.034;2023-11-21T03:01:46;8.27;;;0.90;;
944;SDS011;459;48.676;9.034;2023-11-21T03:04:11;2.27;;;1.30;;
944;SDS011;459;48.676;9.034;2023-11-21T03:06:42;1.37;;;0.80;;
944;SDS011;459;48.676;9.034;2023-11-21T03:09:07;4.23;;;1.80;;
944;SDS011;459;48.676;9.034;2023-11-21T03:11:32;2.30;;;1.00;;
944;SDS011;459;48.676;9.034;2023-11-21T03:13:58;3.17;;;2.97;;
944;SDS011;459;48.676;9.034;2023-11-21T03:16:23;2.30;;;0.90;;
944;SDS011;459;48.676;9.034;2023-11-21T03:18:48;2.30;;;0.87;;
944;SDS011;459;48.676;9.034;2023-11-21T03:21:13;1.13;;;0.70;;
944;SDS011;459;48.676;9.034;2023-11-21T03:23:38;6.80;;;2.00;;
944;SDS011;459;48.676;9.034;2023-11-21T03:26:04;2.63;;;0.87;;
944;SDS011;459;48.676;9.034;2023-11-21T03:28:30;1.50;;;0.87;;
944;SDS011;459;48.676;9.034;2023-11-21T03:30:56;0.80;;;0.60;;
944;SDS011;459;48.676;9.034;2023-11-21T03:33:21;1.00;;;0.90;;
944;SDS011;459;48.676;9.034;2023-11-21T03:35:47;1.60;;;0.70;;
944;SDS011;459;48.676;9.034;2023-11-21T03:38:12;1.73;;;1.13;;
944;SDS011;459;48.676;9.034;2023-11-21T03:40:37;1.97;;;0.60;;
944;SDS011;459;48.676;9.034;2023-11-21T03:43:04;2.30;;;0.93;;
944;SDS011;459;48.676;9.034;2023-11-21T03:45:29;0.80;;;0.80;;
944;SDS011;459;48.676;9.034;2023-11-21T03:47:54;0.80;;;0.60;;
944;SDS011;459;48.676;9.034;2023-11-21T03:50:20;1.40;;;0.70;;
944;SDS011;459;48.676;9.034;2023-11-21T03:52:46;1.20;;;0.70;;
944;SDS011;459;48.676;9.034;2023-11-21T03:55:11;0.80;;;0.60;;
944;SDS011;459;48.676;9.034;2023-11-21T03:57:36;0.70;;;0.70;;
944;SDS011;459;48.676;9.034;2023-11-21T04:00:01;1.60;;;0.80;;
944;SDS011;459;48.676;9.034;2023-11-21T04:02:29;0.60;;;0.60;;
944;SDS011;459;48.676;9.034;2023-11-21T04:04:54;0.90;;;0.90;;
944;SDS011;459;48.676;9.034;2023-11-21T04:07:19;0.80;;;0.70;;
944;SDS011;459;48.676;9.034;2023-11-21T04:09:46;1.57;;;1.27;;
944;SDS011;459;48.676;9.034;2023-11-21T04:12:12;0.90;;;0.80;;
944;SDS011;459;48.676;9.034;2023-11-21T04:14:37;1.47;;;0.70;;
944;SDS011;459;48.676;9.034;2023-11-21T04:17:03;1.10;;;0.67;;
944;SDS011;459;48.676;9.034;2023-11-21T04:19:29;1.07;;;0.70;;
944;SDS011;459;48.676;9.034;2023-11-21T04:21:54;0.77;;;0.40;;
944;SDS011;459;48.676;9.034;2023-11-21T04:24:19;0.50;;;0.50;;
944;SDS011;459;48.676;9.034;2023-11-21T04:26:44;1.10;;;1.00;;
944;SDS011;459;48.676;9.034;2023-11-21T04:29:10;0.80;;;0.80;;
944;SDS011;459;48.676;9.034;2023-11-21T04:31:35;0.70;;;0.70;;
944;SDS011;459;48.676;9.034;2023-11-21T04:34:00;1.00;;;0.97;;
944;SDS011;459;48.676;9.034;2023-11-21T04:36:25;1.13;;;0.80;;
944;SDS011;459;48.676;9.034;2023-11-21T04:38:50;0.93;;;0.80;;
944;SDS011;459;48.676;9.034;2023-11-21T04:41:15;0.83;;;0.83;;
944;SDS011;459;48.676;9.034;2023-11-21T04:43:41;1.50;;;0.77;;
944;SDS011;459;48.676;9.034;2023-11-21T04:46:07;0.97;;;0.70;;
944;SDS011;459;48.676;9.034;2023-11-21T04:48:32;0.70;;;0.70;;
944;SDS011;459;48.676;9.034;2023-11-21T04:50:58;1.23;;;0.70;;
944;SDS011;459;48.676;9.034;2023-11-21T04:53:23;1.27;;;0.90;;
944;SDS011;459;48.676;9.034;2023-11-21T04:55:48;0.93;;;0.60;;
944;SDS011;459;48.676;9.034;2023-11-21T04:58:13;0.70;;;0.70;;
944;SDS011;459;48.676;9.034;2023-11-21T05:00:39;1.47;;;1.37;;
944;SDS011;459;48.676;9.034;2023-11-21T05:03:04;2.50;;;1.10;;
944;SDS011;459;48.676;9.034;2023-11-21T05:05:30;0.80;;;0.80;;
944;SDS011;459;48.676;9.034;2023-11-21T05:07:55;1.17;;;0.83;;
944;SDS011;459;48.676;9.034;2023-11-21T05:10:21;2.10;;;0.60;;
944;SDS011;459;48.676;9.034;2023-11-21T05:12:47;0.80;;;0.47;;
944;SDS011;459;48.676;9.034;2023-11-21T05:15:14;0.73;;;0.73;;
944;SDS011;459;48.676;9.034;2023-11-21T05:17:39;0.60;;;0.60;;
944;SDS011;459;48.676;9.034;2023-11-21T05:20:07;0.60;;;0.60;;
944;SDS011;459;48.676;9.034;2023-11-21T05:22:34;0.80;;;0.80;;
944;SDS011;459;48.676;9.034;2023-11-21T05:25:00;0.77;;;0.70;;
944;SDS011;459;48.676;9.034;2023-11-21T05:27:25;0.97;;;0.77;;
944;SDS011;459;48.676;9.034;2023-11-21T05:29:50;0.70;;;0.60;;
944;SDS011;459;48.676;9.034;2023-11-21T05:32:15;1.20;;;0.97;;
944;SDS011;459;48.676;9.034;2023-11-21T05:34:42;0.80;;;0.80;;
944;SDS011;459;48.676;9.034;2023-11-21T05:37:07;1.40;;;0.70;;
944;SDS011;459;48.676;9.034;2023-11-21T05:39:33;6.30;;;1.10;;
944;SDS011;459;48.676;9.034;2023-11-21T05:41:58;1.20;;;1.10;;
944;SDS011;459;48.676;9.034;2023-11-21T05:44:25;1.03;;;0.90;;
944;SDS011;459;48.676;9.034;2023-11-21T05:46:50;1.80;;;1.20;;
944;SDS011;459;48.676;9.034;2023-11-21T05:49:15;2.27;;;1.43;;
944;SDS011;459;48.676;9.034;2023-11-21T05:51:41;1.07;;;0.97;;
944;SDS011;459;48.676;9.034;2023-11-21T05:54:06;0.90;;;0.87;;
944;SDS011;459;48.676;9.034;2023-11-21T05:56:32;3.33;;;1.30;;
944;SDS011;459;48.676;9.034;2023-11-21T05:58:58;1.83;;;1.37;;
944;SDS011;459;48.676;9.034;2023-11-21T06:01:23;1.97;;;1.17;;
944;SDS011;459;48.676;9.034;2023-11-21T06:03:48;1.90;;;1.20;;
944;SDS011;459;48.676;9.034;2023-11-21T06:06:13;1.00;;;1.00;;
944;SDS011;459;48.676;9.034;2023-11-21T06:08:38;1.60;;;1.30;;
944;SDS011;459;48.676;9.034;2023-11-21T06:11:04;1.50;;;1.20;;
944;SDS011;459;48.676;9.034;2023-11-21T06:13:29;2.83;;;1.20;;
944;SDS011;459;48.676;9.034;2023-11-21T06:15:55;0.63;;;0.63;;
944;SDS011;459;48.676;9.034;2023-11-21T06:18:20;1.10;;;1.10;;
944;SDS011;459;48.676;9.034;2023-11-21T06:20:46;1.23;;;1.13;;
944;SDS011;459;48.676;9.034;2023-11-21T06:23:11;1.53;;;0.90;;
944;SDS011;459;48.676;9.034;2023-11-21T06:25:36;1.60;;;1.00;;
944;SDS011;459;48.676;9.034;2023-11-21T06:28:02;5.67;;;1.77;;
944;SDS011;459;48.676;9.034;2023-11-21T06:30:27;1.63;;;1.10;;
944;SDS011;459;48.676;9.034;2023-11-21T06:32:53;2.33;;;2.13;;
944;SDS011;459;48.676;9.034;2023-11-21T06:35:19;1.40;;;1.30;;
944;SDS011;459;48.676;9.034;2023-11-21T06:37:45;2.73;;;1.20;;
944;SDS011;459;48.676;9.034;2023-11-21T06:40:13;1.33;;;1.23;;
944;SDS011;459;48.676;9.034;2023-11-21T06:42:40;3.33;;;1.37;;
944;SDS011;459;48.676;9.034;2023-11-21T06:45:06;1.50;;;1.07;;
944;SDS011;459;48.676;9.034;2023-11-21T06:47:31;1.70;;;1.47;;
944;SDS011;459;48.676;9.034;2023-11-21T06:49:56;1.27;;;1.17;;
944;SDS011;459;48.676;9.034;2023-11-21T06:52:22;1.33;;;1.10;;
944;SDS011;459;48.676;9.034;2023-11-21T06:54:47;2.33;;;2.03;;
944;SDS011;459;48.676;9.034;2023-11-21T06:57:14;2.33;;;1.83;;
944;SDS011;459;48.676;9.034;2023-11-21T06:59:39;3.43;;;1.77;;
944;SDS011;459;48.676;9.034;2023-11-21T07:02:04;2.00;;;1.70;;
944;SDS011;459;48.676;9.034;2023-11-21T07:04:35;1.90;;;1.77;;
944;SDS011;459;48.676;9.034;2023-11-21T07:07:01;1.57;;;1.47;;
944;SDS011;459;48.676;9.034;2023-11-21T07:09:27;1.80;;;1.50;;
944;SDS011;459;48.676;9.034;2023-11-21T07:11:52;2.23;;;1.80;;
944;SDS011;459;48.676;9.034;2023-11-21T07:14:18;3.33;;;1.67;;
944;SDS011;459;48.676;9.034;2023-11-21T07:16:44;2.20;;;1.77;;
944;SDS011;459;48.676;9.034;2023-11-21T07:19:10;1.70;;;1.53;;
944;SDS011;459;48.676;9.034;2023-11-21T07:21:35;2.73;;;1.50;;
944;SDS011;459;48.676;9.034;2023-11-21T07:24:01;2.00;;;1.90;;
944;SDS011;459;48.676;9.034;2023-11-21T07:26:26;3.60;;;1.60;;
944;SDS011;459;48.676;9.034;2023-11-21T07:28:52;1.70;;;1.60;;
944;SDS011;459;48.676;9.034;2023-11-21T07:31:17;2.40;;;1.90;;
944;SDS011;459;48.676;9.034;2023-11-21T07:33:42;1.80;;;1.70;;
944;SDS011;459;48.676;9.034;2023-11-21T07:36:07;3.20;;;1.50;;
944;SDS011;459;48.676;9.034;2023-11-21T07:38:33;1.70;;;1.60;;
944;SDS011;459;48.676;9.034;2023-11-21T07:40:58;1.33;;;1.23;;
944;SDS011;459;48.676;9.034;2023-11-21T07:43:26;4.50;;;1.80;;
944;SDS011;459;48.676;9.034;2023-11-21T07:45:51;2.20;;;2.00;;
944;SDS011;459;48.676;9.034;2023-11-21T07:48:17;2.23;;;1.73;;
944;SDS011;459;48.676;9.034;2023-11-21T07:50:42;1.30;;;1.20;;
944;SDS011;459;48.676;9.034;2023-11-21T07:53:07;3.40;;;1.80;;
944;SDS011;459;48.676;9.034;2023-11-21T07:55:32;2.43;;;1.80;;
944;SDS011;459;48.676;9.034;2023-11-21T07:57:58;1.47;;;1.37;;
944;SDS011;459;48.676;9.034;2023-11-21T08:00:23;2.23;;;1.70;;
944;SDS011;459;48.676;9.034;2023-11-21T08:02:49;0.90;;;0.90;;
944;SDS011;459;48.676;9.034;2023-11-21T08:05:14;1.30;;;1.20;;
944;SDS011;459;48.676;9.034;2023-11-21T08:07:40;1.60;;;1.23;;
944;SDS011;459;48.676;9.034;2023-11-21T08:10:05;1.40;;;1.10;;
944;SDS011;459;48.676;9.034;2023-11-21T08:12:31;1.67;;;1.57;;
944;SDS011;459;48.676;9.034;2023-11-21T08:14:57;1.63;;;0.90;;
944;SDS011;459;48.676;9.034;2023-11-21T08:17:22;2.00;;;1.07;;
944;SDS011;459;48.676;9.034;2023-11-21T08:19:49;1.47;;;1.30;;
944;SDS011;459;48.676;9.034;2023-11-21T08:22:16;1.00;;;0.80;;
944;SDS011;459;48.676;9.034;2023-11-21T08:24:43;1.33;;;0.80;;
944;SDS011;459;48.676;9.034;2023-11-21T08:27:08;2.77;;;1.03;;
944;SDS011;459;48.676;9.034;2023-11-21T08:29:33;1.20;;;1.10;;
944;SDS011;459;48.676;9.034;2023-11-21T08:31:59;1.30;;;1.20;;
944;SDS011;459;48.676;9.034;2023-11-21T08:34:25;1.33;;;1.10;;
944;SDS011;459;48.676;9.034;2023-11-21T08:36:50;0.80;;;0.80;;
944;SDS011;459;48.676;9.034;2023-11-21T08:39:16;1.20;;;1.10;;
944;SDS011;459;48.676;9.034;2023-11-21T08:41:44;1.00;;;0.80;;
944;SDS011;459;48.676;9.034;2023-11-21T08:44:09;1.53;;;1.23;;
944;SDS011;459;48.676;9.034;2023-11-21T08:46:34;1.30;;;0.90;;
944;SDS011;459;48.676;9.034;2023-11-21T08:49:01;1.00;;;0.80;;
944;SDS011;459;48.676;9.034;2023-11-21T08:51:27;1.23;;;1.13;;
944;SDS011;459;48.676;9.034;2023-11-21T08:53:52;1.20;;;1.10;;
944;SDS011;459;48.676;9.034;2023-11-21T08:56:17;1.30;;;1.20;;
944;SDS011;459;48.676;9.034;2023-11-21T08:58:43;1.60;;;1.20;;
944;SDS011;459;48.676;9.034;2023-11-21T09:01:08;1.33;;;1.00;;
944;SDS011;459;48.676;9.034;2023-11-21T09:03:34;1.20;;;1.10;;
944;SDS011;459;48.676;9.034;2023-11-21T09:05:59;1.17;;;1.07;;
944;SDS011;459;48.676;9.034;2023-11-21T09:08:25;1.30;;;1.13;;
944;SDS011;459;48.676;9.034;2023-11-21T09:10:50;1.27;;;1.00;;
944;SDS011;459;48.676;9.034;2023-11-21T09:13:15;1.33;;;1.10;;
944;SDS011;459;48.676;9.034;2023-11-21T09:15:41;1.43;;;1.20;;
944;SDS011;459;48.676;9.034;2023-11-21T09:18:07;1.00;;;0.90;;
944;SDS011;459;48.676;9.034;2023-11-21T09:20:32;1.60;;;1.13;;
944;SDS011;459;48.676;9.034;2023-11-21T09:22:57;5.63;;;1.40;;
944;SDS011;459;48.676;9.034;2023-11-21T09:25:22;1.10;;;1.00;;
944;SDS011;459;48.676;9.034;2023-11-21T09:27:48;1.33;;;1.23;;
944;SDS011;459;48.676;9.034;2023-11-21T09:30:13;1.20;;;1.10;;
944;SDS011;459;48.676;9.034;2023-11-21T09:32:39;1.03;;;0.87;;
944;SDS011;459;48.676;9.034;2023-11-21T09:35:05;1.30;;;1.20;;
944;SDS011;459;48.676;9.034;2023-11-21T09:37:33;1.33;;;1.23;;
944;SDS011;459;48.676;9.034;2023-11-21T09:39:58;2.07;;;1.50;;
944;SDS011;459;48.676;9.034;2023-11-21T09:42:25;2.60;;;1.43;;
944;SDS011;459;48.676;9.034;2023-11-21T09:47:22;1.77;;;1.37;;
944;SDS011;459;48.676;9.034;2023-11-21T09:49:48;1.47;;;1.37;;
944;SDS011;459;48.676;9.034;2023-11-21T09:52:26;1.20;;;1.10;;
944;SDS011;459;48.676;9.034;2023-11-21T09:54:52;1.20;;;1.10;;
944;SDS011;459;48.676;9.034;2023-11-21T09:57:19;1.40;;;1.30;;
944;SDS011;459;48.676;9.034;2023-11-21T09:59:44;1.97;;;1.03;;
944;SDS011;459;48.676;9.034;2023-11-21T10:02:10;1.57;;;1.03;;
944;SDS011;459;48.676;9.034;2023-11-21T10:04:38;2.80;;;1.20;;
944;SDS011;459;48.676;9.034;2023-11-21T10:07:03;1.70;;;1.60;;
944;SDS011;459;48.676;9.034;2023-11-21T10:09:33;1.27;;;1.17;;
944;SDS011;459;48.676;9.034;2023-11-21T10:11:58;1.03;;;0.97;;
944;SDS011;459;48.676;9.034;2023-11-21T10:14:25;1.20;;;1.10;;
944;SDS011;459;48.676;9.034;2023-11-21T10:16:51;1.40;;;1.20;;
944;SDS011;459;48.676;9.034;2023-11-21T10:19:18;1.87;;;1.63;;
944;SDS011;459;48.676;9.034;2023-11-21T10:21:45;1.70;;;1.60;;
944;SDS011;459;48.676;9.034;2023-11-21T10:24:10;1.57;;;1.30;;
944;SDS011;459;48.676;9.034;2023-11-21T10:26:37;0.90;;;0.90;;
944;SDS011;459;48.676;9.034;2023-11-21T10:29:03;2.60;;;1.73;;
944;SDS011;459;48.676;9.034;2023-11-21T10:31:29;2.27;;;1.30;;
944;SDS011;459;48.676;9.034;2023-11-21T10:33:55;1.80;;;1.33;;
944;SDS011;459;48.676;9.034;2023-11-21T10:36:28;1.60;;;1.50;;
944;SDS011;459;48.676;9.034;2023-11-21T10:38:54;1.40;;;1.30;;
944;SDS011;459;48.676;9.034;2023-11-21T10:41:20;2.70;;;1.30;;
944;SDS011;459;48.676;9.034;2023-11-21T10:43:45;2.70;;;1.53;;
944;SDS011;459;48.676;9.034;2023-11-21T10:46:10;1.30;;;1.20;;
944;SDS011;459;48.676;9.034;2023-11-21T10:48:35;1.90;;;1.50;;
944;SDS011;459;48.676;9.034;2023-11-21T10:51:01;1.40;;;1.30;;
944;SDS011;459;48.676;9.034;2023-11-21T10:53:32;1.57;;;1.47;;
944;SDS011;459;48.676;9.034;2023-11-21T10:56:05;1.70;;;1.50;;
944;SDS011;459;48.676;9.034;2023-11-21T10:58:32;3.10;;;1.50;;
944;SDS011;459;48.676;9.034;2023-11-21T11:00:57;4.27;;;2.30;;
944;SDS011;459;48.676;9.034;2023-11-21T11:03:23;1.70;;;1.60;;
944;SDS011;459;48.676;9.034;2023-11-21T11:05:48;1.70;;;1.60;;
944;SDS011;459;48.676;9.034;2023-11-21T11:08:16;3.00;;;2.00;;
944;SDS011;459;48.676;9.034;2023-11-21T11:10:44;3.43;;;2.27;;
944;SDS011;459;48.676;9.034;2023-11-21T11:13:11;2.30;;;2.10;;
944;SDS011;459;48.676;9.034;2023-11-21T11:15:39;2.47;;;2.27;;
944;SDS011;459;48.676;9.034;2023-11-21T11:18:04;2.53;;;2.10;;
944;SDS011;459;48.676;9.034;2023-11-21T11:20:36;3.33;;;3.03;;
944;SDS011;459;48.676;9.034;2023-11-21T11:28:20;3.70;;;2.90;;
944;SDS011;459;48.676;9.034;2023-11-21T11:38:07;3.63;;;2.90;;
944;SDS011;459;48.676;9.034;2023-11-21T11:40:45;5.37;;;3.07;;
944;SDS011;459;48.676;9.034;2023-11-21T11:43:11;4.47;;;3.53;;
944;SDS011;459;48.676;9.034;2023-11-21T11:45:36;3.43;;;3.13;;
944;SDS011;459;48.676;9.034;2023-11-21T11:48:06;7.03;;;2.90;;
944;SDS011;459;48.676;9.034;2023-11-21T11:50:31;3.27;;;2.97;;
944;SDS011;459;48.676;9.034;2023-11-21T11:53:12;3.00;;;2.60;;
944;SDS011;459;48.676;9.034;2023-11-21T11:55:38;4.20;;;2.93;;
944;SDS011;459;48.676;9.034;2023-11-21T11:58:04;2.40;;;2.20;;
944;SDS011;459;48.676;9.034;2023-11-21T12:00:36;6.10;;;3.50;;
944;SDS011;459;48.676;9.034;2023-11-21T12:03:05;3.00;;;2.73;;
944;SDS011;459;48.676;9.034;2023-11-21T12:05:32;3.13;;;2.70;;
944;SDS011;459;48.676;9.034;2023-11-21T12:08:01;3.33;;;3.03;;
944;SDS011;459;48.676;9.034;2023-11-21T12:10:27;3.50;;;3.27;;
944;SDS011;459;48.676;9.034;2023-11-21T12:15:18;3.67;;;3.38;;
944;SDS011;459;48.676;9.034;2023-11-21T12:17:44;4.73;;;3.93;;
944;SDS011;459;48.676;9.034;2023-11-21T12:20:09;2.87;;;2.67;;
944;SDS011;459;48.676;9.034;2023-11-21T12:22:46;2.07;;;1.97;;
944;SDS011;459;48.676;9.034;2023-11-21T12:25:17;2.93;;;2.00;;
944;SDS011;459;48.676;9.034;2023-11-21T12:27:47;2.20;;;2.00;;
944;SDS011;459;48.676;9.034;2023-11-21T12:30:14;2.40;;;2.20;;
944;SDS011;459;48.676;9.034;2023-11-21T12:32:40;2.73;;;2.33;;
944;SDS011;459;48.676;9.034;2023-11-21T12:35:09;2.30;;;2.07;;
944;SDS011;459;48.676;9.034;2023-11-21T12:37:36;3.57;;;2.60;;
944;SDS011;459;48.676;9.034;2023-11-21T12:40:02;3.33;;;3.00;;
944;SDS011;459;48.676;9.034;2023-11-21T12:42:27;2.60;;;2.07;;
944;SDS011;459;48.676;9.034;2023-11-21T12:45:08;2.53;;;2.33;;
944;SDS011;459;48.676;9.034;2023-11-21T12:47:39;1.70;;;1.60;;
944;SDS011;459;48.676;9.034;2023-11-21T12:50:05;1.80;;;1.50;;
944;SDS011;459;48.676;9.034;2023-11-21T12:52:31;4.20;;;1.60;;
944;SDS011;459;48.676;9.034;2023-11-21T12:54:57;3.13;;;1.97;;
944;SDS011;459;48.676;9.034;2023-11-21T12:57:25;2.40;;;1.63;;
944;SDS011;459;48.676;9.034;2023-11-21T12:59:52;1.80;;;1.70;;
944;SDS011;459;48.676;9.034;2023-11-21T13:02:19;1.93;;;1.53;;
944;SDS011;459;48.676;9.034;2023-11-21T13:04:46;1.93;;;1.80;;
944;SDS011;459;48.676;9.034;2023-11-21T13:07:16;2.07;;;1.67;;
944;SDS011;459;48.676;9.034;2023-11-21T13:09:42;2.33;;;2.10;;
944;SDS011;459;48.676;9.034;2023-11-21T13:12:08;2.60;;;2.30;;
944;SDS011;459;48.676;9.034;2023-11-21T13:14:35;2.40;;;2.20;;
944;SDS011;459;48.676;9.034;2023-11-21T13:17:00;2.10;;;1.90;;
944;SDS011;459;48.676;9.034;2023-11-21T13:19:25;2.37;;;2.17;;
944;SDS011;459;48.676;9.034;2023-11-21T13:21:52;3.17;;;2.90;;
944;SDS011;459;48.676;9.034;2023-11-21T13:24:17;3.03;;;2.57;;
944;SDS011;459;48.676;9.034;2023-11-21T13:26:43;3.57;;;3.17;;
944;SDS011;459;48.676;9.034;2023-11-21T13:29:10;2.33;;;2.13;;
944;SDS011;459;48.676;9.034;2023-11-21T13:31:37;3.00;;;2.77;;
944;SDS011;459;48.676;9.034;2023-11-21T13:34:03;3.00;;;2.70;;
944;SDS011;459;48.676;9.034;2023-11-21T13:36:33;3.43;;;3.13;;
944;SDS011;459;48.676;9.034;2023-11-21T13:39:00;4.27;;;3.87;;
944;SDS011;459;48.676;9.034;2023-11-21T13:41:32;3.00;;;2.60;;
944;SDS011;459;48.676;9.034;2023-11-21T13:43:57;3.37;;;3.07;;
944;SDS011;459;48.676;9.034;2023-11-21T13:46:41;4.70;;;3.03;;
944;SDS011;459;48.676;9.034;2023-11-21T13:49:06;2.70;;;2.43;;
944;SDS011;459;48.676;9.034;2023-11-21T13:51:35;1.80;;;1.70;;
944;SDS011;459;48.676;9.034;2023-11-21T13:54:09;2.00;;;1.43;;
944;SDS011;459;48.676;9.034;2023-11-21T13:56:35;1.97;;;1.77;;
944;SDS011;459;48.676;9.034;2023-11-21T13:59:00;1.90;;;1.30;;
944;SDS011;459;48.676;9.034;2023-11-21T14:01:34;1.00;;;1.00;;
944;SDS011;459;48.676;9.034;2023-11-21T14:04:17;1.33;;;1.00;;
944;SDS011;459;48.676;9.034;2023-11-21T14:06:43;2.23;;;1.40;;
944;SDS011;459;48.676;9.034;2023-11-21T14:09:16;1.23;;;1.13;;
944;SDS011;459;48.676;9.034;2023-11-21T14:11:52;1.60;;;1.40;;
944;SDS011;459;48.676;9.034;2023-11-21T14:14:21;1.70;;;1.47;;
944;SDS011;459;48.676;9.034;2023-11-21T14:16:47;0.90;;;0.90;;
944;SDS011;459;48.676;9.034;2023-11-21T14:19:13;1.30;;;1.20;;
944;SDS011;459;48.676;9.034;2023-11-21T14:21:42;2.43;;;1.40;;
944;SDS011;459;48.676;9.034;2023-11-21T14:24:08;2.03;;;1.27;;
944;SDS011;459;48.676;9.034;2023-11-21T14:26:34;1.83;;;1.03;;
944;SDS011;459;48.676;9.034;2023-11-21T14:29:00;1.57;;;1.37;;
944;SDS011;459;48.676;9.034;2023-11-21T14:31:25;1.27;;;1.17;;
944;SDS011;459;48.676;9.034;2023-11-21T14:33:51;2.17;;;1.37;;
944;SDS011;459;48.676;9.034;2023-11-21T14:36:16;1.93;;;1.73;;
944;SDS011;459;48.676;9.034;2023-11-21T14:38:42;1.77;;;1.67;;
944;SDS011;459;48.676;9.034;2023-11-21T14:41:07;2.70;;;1.63;;
944;SDS011;459;48.676;9.034;2023-11-21T14:43:34;1.97;;;1.83;;
944;SDS011;459;48.676;9.034;2023-11-21T14:46:00;2.10;;;1.67;;
944;SDS011;459;48.676;9.034;2023-11-21T14:48:27;2.00;;;1.90;;
944;SDS011;459;48.676;9.034;2023-11-21T14:51:08;2.33;;;1.90;;
944;SDS011;459;48.676;9.034;2023-11-21T14:53:52;2.10;;;2.00;;
944;SDS011;459;48.676;9.034;2023-11-21T14:56:21;2.27;;;2.13;;
944;SDS011;459;48.676;9.034;2023-11-21T14:58:52;2.73;;;2.07;;
944;SDS011;459;48.676;9.034;2023-11-21T15:01:17;3.37;;;2.80;;
944;SDS011;459;48.676;9.034;2023-11-21T15:04:00;2.73;;;2.53;;
944;SDS011;459;48.676;9.034;2023-11-21T15:06:25;3.50;;;2.50;;
944;SDS011;459;48.676;9.034;2023-11-21T15:08:52;3.03;;;2.73;;
944;SDS011;459;48.676;9.034;2023-11-21T15:11:22;3.03;;;2.73;;
944;SDS011;459;48.676;9.034;2023-11-21T15:13:55;3.73;;;3.23;;
944;SDS011;459;48.676;9.034;2023-11-21T15:16:20;4.67;;;4.27;;
944;SDS011;459;48.676;9.034;2023-11-21T15:18:45;2.83;;;2.60;;
944;SDS011;459;48.676;9.034;2023-11-21T15:21:10;3.57;;;3.27;;
944;SDS011;459;48.676;9.034;2023-11-21T15:23:37;3.63;;;3.10;;
944;SDS011;459;48.676;9.034;2023-11-21T15:26:04;4.00;;;3.20;;
944;SDS011;459;48.676;9.034;2023-11-21T15:28:30;3.70;;;2.80;;
944;SDS011;459;48.676;9.034;2023-11-21T15:30:57;2.83;;;2.60;;
944;SDS011;459;48.676;9.034;2023-11-21T15:33:23;2.90;;;2.70;;
944;SDS011;459;48.676;9.034;2023-11-21T15:35:48;3.10;;;2.83;;
944;SDS011;459;48.676;9.034;2023-11-21T15:38:14;3.17;;;2.90;;
944;SDS011;459;48.676;9.034;2023-11-21T15:40:39;3.70;;;3.40;;
944;SDS011;459;48.676;9.034;2023-11-21T15:43:04;3.97;;;3.20;;
944;SDS011;459;48.676;9.034;2023-11-21T15:45:31;4.40;;;3.97;;
944;SDS011;459;48.676;9.034;2023-11-21T15:47:57;5.50;;;4.80;;
944;SDS011;459;48.676;9.034;2023-11-21T15:50:23;6.40;;;5.47;;
944;SDS011;459;48.676;9.034;2023-11-21T15:52:49;6.13;;;5.53;;
944;SDS011;459;48.676;9.034;2023-11-21T15:55:15;4.30;;;3.90;;
944;SDS011;459;48.676;9.034;2023-11-21T15:57:40;5.93;;;5.33;;